createdAt,value
2023-04-17T00:00:30.882Z,8.24
2023-04-17T00:03:01.785Z,8.23
2023-04-17T00:05:32.026Z,8.23
2023-04-17T00:08:00.189Z,8.25
2023-04-17T00:10:28.859Z,8.26
2023-04-17T00:12:57.105Z,8.26
2023-04-17T00:15:26.080Z,8.28
2023-04-17T00:18:00.599Z,8.27
2023-04-17T00:20:28.900Z,8.29
2023-04-17T00:22:56.800Z,8.33
2023-04-17T00:25:25.154Z,8.32
2023-04-17T00:27:53.417Z,8.30
2023-04-17T00:30:21.732Z,8.29
2023-04-17T00:32:50.030Z,8.27
2023-04-17T00:35:17.983Z,8.26
2023-04-17T00:37:45.885Z,8.24
2023-04-17T00:40:13.959Z,8.25
2023-04-17T00:42:42.023Z,8.27
2023-04-17T00:45:11.329Z,8.27
2023-04-17T00:47:39.333Z,8.28
2023-04-17T00:50:07.820Z,8.25
2023-04-17T00:52:35.913Z,8.27
2023-04-17T00:55:04.157Z,8.27
2023-04-17T00:57:32.583Z,8.25
2023-04-17T01:00:00.342Z,8.24
2023-04-17T01:02:28.259Z,8.25
2023-04-17T01:04:56.753Z,8.26
2023-04-17T01:07:24.723Z,8.26
2023-04-17T01:09:52.538Z,8.25
2023-04-17T01:12:21.486Z,8.25
2023-04-17T01:14:50.062Z,8.26
2023-04-17T01:17:19.654Z,8.28
2023-04-17T01:19:48.178Z,8.28
2023-04-17T01:22:16.558Z,8.28
2023-04-17T01:24:44.438Z,8.28
2023-04-17T01:27:16.324Z,8.30
2023-04-17T01:29:45.782Z,8.33
2023-04-17T01:32:14.095Z,8.34
2023-04-17T01:34:42.643Z,8.34
2023-04-17T01:37:10.368Z,8.32
2023-04-17T01:39:38.162Z,8.31
2023-04-17T01:42:06.302Z,8.35
2023-04-17T01:44:34.186Z,8.35
2023-04-17T01:47:01.912Z,8.36
2023-04-17T01:49:29.890Z,8.43
2023-04-17T01:51:57.676Z,8.43
2023-04-17T01:54:25.551Z,8.46
2023-04-17T01:56:53.321Z,8.51
2023-04-17T01:59:21.148Z,8.49
2023-04-17T02:01:49.826Z,8.52
2023-04-17T02:04:17.846Z,8.55
2023-04-17T02:06:46.224Z,8.55
2023-04-17T02:09:14.142Z,8.55
2023-04-17T02:11:42.570Z,8.54
2023-04-17T02:14:11.872Z,8.52
2023-04-17T02:16:45.781Z,8.52
2023-04-17T02:19:13.874Z,8.54
2023-04-17T02:21:42.215Z,8.53
2023-04-17T02:24:10.384Z,8.50
2023-04-17T02:26:38.876Z,8.48
2023-04-17T02:29:06.933Z,8.46
2023-04-17T02:31:34.833Z,8.48
2023-04-17T02:34:03.416Z,8.52
2023-04-17T02:36:32.122Z,8.55
2023-04-17T02:38:59.970Z,8.55
2023-04-17T02:41:27.776Z,8.54
2023-04-17T02:43:56.717Z,8.54
2023-04-17T02:46:24.564Z,8.55
2023-04-17T02:48:52.449Z,8.54
2023-04-17T02:51:21.762Z,8.55
2023-04-17T02:53:49.557Z,8.61
2023-04-17T02:56:17.648Z,8.68
2023-04-17T02:58:45.684Z,8.70
2023-04-17T03:01:13.478Z,8.66
2023-04-17T03:03:45.207Z,8.66
2023-04-17T03:06:14.908Z,8.67
2023-04-17T03:08:43.573Z,8.71
2023-04-17T03:11:11.394Z,8.75
2023-04-17T03:13:39.382Z,8.82
2023-04-17T03:16:07.327Z,8.90
2023-04-17T03:18:39.100Z,8.96
2023-04-17T03:21:07.240Z,8.99
2023-04-17T03:23:36.370Z,9.00
2023-04-17T03:26:04.553Z,9.02
2023-04-17T03:28:33.408Z,9.06
2023-04-17T03:31:02.527Z,9.11
2023-04-17T03:33:31.733Z,9.16
2023-04-17T03:35:59.965Z,9.21
2023-04-17T03:38:27.914Z,9.24
2023-04-17T03:40:56.080Z,9.26
2023-04-17T03:43:25.156Z,9.25
2023-04-17T03:45:52.989Z,9.26
2023-04-17T03:48:21.477Z,9.28
2023-04-17T03:50:50.782Z,9.30
2023-04-17T03:53:19.525Z,9.32
2023-04-17T03:55:47.346Z,9.33
2023-04-17T03:58:23.514Z,9.32
2023-04-17T04:00:55.441Z,9.32
2023-04-17T04:03:25.132Z,9.32
2023-04-17T04:05:53.641Z,9.33
2023-04-17T04:08:21.530Z,9.37
2023-04-17T04:10:52.209Z,9.40
2023-04-17T04:13:24.227Z,9.42
2023-04-17T04:15:56.427Z,9.44
2023-04-17T04:18:26.201Z,9.46
2023-04-17T04:20:54.379Z,9.47
2023-04-17T04:23:28.119Z,9.51
2023-04-17T04:26:01.723Z,9.52
2023-04-17T04:28:42.688Z,9.53
2023-04-17T04:31:20.684Z,9.53
2023-04-17T04:33:55.092Z,9.50
2023-04-17T04:36:24.037Z,9.43
2023-04-17T04:39:00.857Z,9.39
2023-04-17T04:41:36.020Z,9.35
2023-04-17T04:44:05.653Z,9.32
2023-04-17T04:46:33.687Z,9.29
2023-04-17T04:49:02.374Z,9.27
2023-04-17T04:51:31.937Z,9.23
2023-04-17T04:53:59.794Z,9.18
2023-04-17T04:56:29.054Z,9.15
2023-04-17T04:58:57.700Z,9.14
2023-04-17T05:01:25.893Z,9.14
2023-04-17T05:03:54.241Z,9.17
2023-04-17T05:06:25.294Z,9.16
2023-04-17T05:08:56.753Z,9.15
2023-04-17T05:11:26.269Z,9.15
2023-04-17T05:13:54.387Z,9.15
2023-04-17T05:16:25.974Z,9.14
2023-04-17T05:18:54.477Z,9.14
2023-04-17T05:21:32.510Z,9.14
2023-04-17T05:24:01.661Z,9.14
2023-04-17T05:26:29.818Z,9.12
2023-04-17T05:28:57.620Z,9.10
2023-04-17T05:31:28.006Z,9.09
2023-04-17T05:33:56.280Z,9.11
2023-04-17T05:36:24.452Z,9.13
2023-04-17T05:38:54.217Z,9.13
2023-04-17T05:41:22.046Z,9.12
2023-04-17T05:43:50.973Z,9.12
2023-04-17T05:46:19.339Z,9.11
2023-04-17T05:48:47.412Z,9.11
2023-04-17T05:51:15.368Z,9.09
2023-04-17T05:53:44.932Z,9.07
2023-04-17T05:56:13.015Z,9.07
2023-04-17T05:58:40.784Z,9.06
2023-04-17T06:01:10.424Z,9.05
2023-04-17T06:03:39.969Z,9.03
2023-04-17T06:06:13.953Z,9.05
2023-04-17T06:08:41.940Z,9.06
2023-04-17T06:11:09.760Z,9.08
2023-04-17T06:13:38.615Z,9.09
2023-04-17T06:16:06.826Z,9.13
2023-04-17T06:18:34.718Z,9.15
2023-04-17T06:21:02.705Z,9.17
2023-04-17T06:23:31.162Z,9.18
2023-04-17T06:25:58.976Z,9.19
2023-04-17T06:28:26.728Z,9.20
2023-04-17T06:30:55.262Z,9.19
2023-04-17T06:33:26.063Z,9.18
2023-04-17T06:35:55.394Z,9.20
2023-04-17T06:38:32.144Z,9.23
2023-04-17T06:41:00.448Z,9.27
2023-04-17T06:43:28.539Z,9.33
2023-04-17T06:45:56.448Z,9.36
2023-04-17T06:48:24.401Z,9.41
2023-04-17T06:50:52.266Z,9.46
2023-04-17T06:53:21.801Z,9.48
2023-04-17T06:55:50.321Z,9.52
2023-04-17T06:58:18.305Z,9.51
2023-04-17T07:00:46.092Z,9.52
2023-04-17T07:03:15.002Z,9.55
2023-04-17T07:05:44.078Z,9.60
2023-04-17T07:08:12.388Z,9.65
2023-04-17T07:10:41.430Z,9.66
2023-04-17T07:13:09.254Z,9.67
2023-04-17T07:15:37.038Z,9.69
2023-04-17T07:18:05.154Z,9.70
2023-04-17T07:20:33.312Z,9.72
2023-04-17T07:23:01.868Z,9.70
2023-04-17T07:25:29.959Z,9.71
2023-04-17T07:27:57.697Z,9.73
2023-04-17T07:30:25.794Z,9.78
2023-04-17T07:32:53.685Z,9.82
2023-04-17T07:35:22.698Z,9.84
2023-04-17T07:37:50.730Z,9.86
2023-04-17T07:40:19.462Z,9.86
2023-04-17T07:42:47.464Z,9.87
2023-04-17T07:45:15.370Z,9.88
2023-04-17T07:47:43.242Z,9.90
2023-04-17T07:50:11.292Z,9.91
2023-04-17T07:52:39.124Z,9.95
2023-04-17T07:55:07.447Z,9.99
2023-04-17T07:57:35.794Z,10.00
2023-04-17T08:00:06.924Z,10.01
2023-04-17T08:02:42.049Z,10.04
2023-04-17T08:05:10.187Z,10.05
2023-04-17T08:07:38.489Z,10.02
2023-04-17T08:10:06.893Z,10.04
2023-04-17T08:12:34.751Z,10.08
2023-04-17T08:15:02.768Z,10.11
2023-04-17T08:17:30.838Z,10.18
2023-04-17T08:19:58.945Z,10.23
2023-04-17T08:22:28.762Z,10.26
2023-04-17T08:24:59.933Z,10.26
2023-04-17T08:27:27.819Z,10.22
2023-04-17T08:29:55.567Z,10.21
2023-04-17T08:32:23.573Z,10.19
2023-04-17T08:34:51.695Z,10.15
2023-04-17T08:37:19.672Z,10.09
2023-04-17T08:39:52.549Z,10.06
2023-04-17T08:42:20.662Z,10.02
2023-04-17T08:44:48.683Z,10.01
2023-04-17T08:47:19.894Z,10.03
2023-04-17T08:49:50.625Z,10.05
2023-04-17T08:52:19.222Z,10.07
2023-04-17T08:54:49.884Z,10.12
2023-04-17T08:57:19.324Z,10.17
2023-04-17T08:59:47.591Z,10.22
2023-04-17T09:02:15.479Z,10.25
2023-04-17T09:04:44.656Z,10.27
2023-04-17T09:07:13.198Z,10.31
2023-04-17T09:09:48.023Z,10.34
2023-04-17T09:12:15.947Z,10.38
2023-04-17T09:14:45.236Z,10.45
2023-04-17T09:17:14.543Z,10.49
2023-04-17T09:20:01.097Z,10.53
2023-04-17T09:22:29.085Z,10.59
2023-04-17T09:24:57.893Z,10.66
2023-04-17T09:27:26.787Z,10.78
2023-04-17T09:30:01.760Z,10.93
2023-04-17T09:32:31.508Z,11.08
2023-04-17T09:35:00.260Z,11.23
2023-04-17T09:37:48.842Z,11.33
2023-04-17T09:40:16.888Z,11.40
2023-04-17T09:42:54.055Z,11.54
2023-04-17T09:45:22.365Z,11.63
2023-04-17T09:47:56.053Z,11.72
2023-04-17T09:50:27.219Z,11.78
2023-04-17T09:52:56.131Z,11.85
2023-04-17T09:55:24.707Z,11.91
2023-04-17T09:57:55.816Z,11.91
2023-04-17T10:00:26.952Z,11.97
2023-04-17T10:02:56.399Z,11.98
2023-04-17T10:05:25.952Z,11.96
2023-04-17T10:07:53.904Z,11.97
2023-04-17T10:10:26.345Z,12.00
2023-04-17T10:12:56.168Z,12.04
2023-04-17T10:15:24.373Z,12.09
2023-04-17T10:17:52.829Z,12.10
2023-04-17T10:20:24.201Z,12.02
2023-04-17T10:22:56.325Z,11.97
2023-04-17T10:25:24.365Z,11.94
2023-04-17T10:28:01.217Z,11.91
2023-04-17T10:31:02.139Z,11.90
2023-04-17T10:33:29.998Z,11.86
2023-04-17T10:35:57.735Z,11.89
2023-04-17T10:38:35.922Z,11.87
2023-04-17T10:41:04.727Z,11.90
2023-04-17T10:43:33.024Z,11.90
2023-04-17T10:46:00.888Z,11.87
2023-04-17T10:48:40.830Z,11.91
2023-04-17T10:51:24.255Z,11.87
2023-04-17T10:53:55.952Z,11.89
2023-04-17T10:56:24.751Z,11.96
2023-04-17T10:58:57.134Z,11.90
2023-04-17T11:01:37.178Z,11.86
2023-04-17T11:04:06.394Z,11.83
2023-04-17T11:06:38.097Z,11.90
2023-04-17T11:09:09.096Z,11.89
2023-04-17T11:11:44.574Z,11.88
2023-04-17T11:14:14.847Z,11.82
2023-04-17T11:16:43.433Z,11.81
2023-04-17T11:19:13.049Z,11.79
2023-04-17T11:22:01.497Z,11.83
2023-04-17T11:24:30.483Z,11.83
2023-04-17T11:26:59.940Z,11.84
2023-04-17T11:29:28.060Z,11.90
2023-04-17T11:31:56.686Z,11.95
2023-04-17T11:34:25.250Z,11.97
2023-04-17T11:36:53.992Z,12.02
2023-04-17T11:39:26.035Z,12.07
2023-04-17T11:41:54.015Z,12.17
2023-04-17T11:44:22.151Z,12.29
2023-04-17T11:46:51.032Z,12.41
2023-04-17T11:49:31.759Z,12.43
2023-04-17T11:52:00.012Z,12.60
2023-04-17T11:54:28.330Z,12.71
2023-04-17T11:56:59.874Z,12.80
2023-04-17T11:59:34.840Z,12.85
2023-04-17T12:02:03.570Z,12.88
2023-04-17T12:04:36.406Z,13.01
2023-04-17T12:07:05.072Z,13.17
2023-04-17T12:09:33.628Z,13.27
2023-04-17T12:12:03.696Z,13.31
2023-04-17T12:14:31.810Z,13.38
2023-04-17T12:16:59.840Z,13.43
2023-04-17T12:19:29.586Z,13.47
2023-04-17T12:21:59.303Z,13.52
2023-04-17T12:24:27.376Z,13.65
2023-04-17T12:26:56.192Z,13.75
2023-04-17T12:29:36.152Z,13.77
2023-04-17T12:32:10.892Z,13.83
2023-04-17T12:34:38.946Z,14.00
2023-04-17T12:37:06.830Z,14.21
2023-04-17T12:39:34.879Z,14.39
2023-04-17T12:42:02.713Z,14.63
2023-04-17T12:44:31.171Z,14.80
2023-04-17T12:46:58.944Z,14.93
2023-04-17T12:49:26.661Z,15.05
2023-04-17T12:51:54.461Z,15.10
2023-04-17T12:54:22.152Z,15.12
2023-04-17T12:56:49.987Z,15.16
2023-04-17T12:59:18.081Z,15.22
2023-04-17T13:01:45.981Z,15.31
2023-04-17T13:04:15.010Z,15.40
2023-04-17T13:06:43.194Z,15.49
2023-04-17T13:09:11.606Z,15.59
2023-04-17T13:11:39.661Z,15.76
2023-04-17T13:14:07.444Z,15.78
2023-04-17T13:16:36.052Z,15.74
2023-04-17T13:19:03.847Z,15.73
2023-04-17T13:21:31.964Z,15.80
2023-04-17T13:24:00.457Z,15.93
2023-04-17T13:26:28.580Z,15.99
2023-04-17T13:28:56.439Z,16.01
2023-04-17T13:31:26.728Z,15.99
2023-04-17T13:33:54.639Z,15.89
2023-04-17T13:36:22.479Z,15.84
2023-04-17T13:38:50.540Z,15.69
2023-04-17T13:41:18.558Z,15.59
2023-04-17T13:43:46.529Z,15.47
2023-04-17T13:46:16.379Z,15.39
2023-04-17T13:48:44.461Z,15.28
2023-04-17T13:51:13.334Z,15.17
2023-04-17T13:53:41.342Z,15.18
2023-04-17T13:56:09.530Z,15.06
2023-04-17T13:58:37.661Z,14.99
2023-04-17T14:01:06.514Z,14.92
2023-04-17T14:03:37.599Z,14.86
2023-04-17T14:06:07.646Z,14.85
2023-04-17T14:08:35.727Z,14.81
2023-04-17T14:11:03.507Z,14.75
2023-04-17T14:13:32.531Z,14.74
2023-04-17T14:16:00.946Z,14.72
2023-04-17T14:18:28.843Z,14.76
2023-04-17T14:20:56.845Z,14.72
2023-04-17T14:23:24.684Z,14.63
2023-04-17T14:25:52.710Z,14.58
2023-04-17T14:28:21.338Z,14.52
2023-04-17T14:30:49.971Z,14.48
2023-04-17T14:33:18.067Z,14.46
2023-04-17T14:35:45.980Z,14.42
2023-04-17T14:38:13.799Z,14.35
2023-04-17T14:40:41.822Z,14.29
2023-04-17T14:43:10.079Z,14.26
2023-04-17T14:45:37.898Z,14.28
2023-04-17T14:48:06.102Z,14.22
2023-04-17T14:50:34.074Z,14.20
2023-04-17T14:53:03.489Z,14.18
2023-04-17T14:55:31.294Z,14.08
2023-04-17T14:57:59.271Z,14.09
2023-04-17T15:00:26.983Z,14.07
2023-04-17T15:02:55.197Z,13.94
2023-04-17T15:05:23.145Z,13.99
2023-04-17T15:07:51.036Z,13.97
2023-04-17T15:10:18.839Z,13.92
2023-04-17T15:12:46.980Z,13.88
2023-04-17T15:15:15.044Z,13.88
2023-04-17T15:17:43.777Z,13.84
2023-04-17T15:20:11.631Z,13.80
2023-04-17T15:22:39.457Z,13.76
2023-04-17T15:25:07.742Z,13.73
2023-04-17T15:27:35.799Z,13.72
2023-04-17T15:30:06.616Z,13.68
2023-04-17T15:32:35.045Z,13.65
2023-04-17T15:35:03.491Z,13.58
2023-04-17T15:37:31.670Z,13.50
2023-04-17T15:39:59.659Z,13.45
2023-04-17T15:42:27.898Z,13.43
2023-04-17T15:44:57.707Z,13.40
2023-04-17T15:47:25.497Z,13.34
2023-04-17T15:49:53.533Z,13.30
2023-04-17T15:52:21.445Z,13.26
2023-04-17T15:54:49.312Z,13.24
2023-04-17T15:57:17.225Z,13.22
2023-04-17T15:59:45.266Z,13.20
2023-04-17T16:02:14.089Z,13.16
2023-04-17T16:04:43.825Z,13.11
2023-04-17T16:07:14.310Z,13.07
2023-04-17T16:09:44.736Z,13.02
2023-04-17T16:12:12.573Z,12.98
2023-04-17T16:14:40.380Z,12.95
2023-04-17T16:17:08.136Z,12.93
2023-04-17T16:19:36.160Z,12.91
2023-04-17T16:22:04.075Z,12.88
2023-04-17T16:24:31.877Z,12.82
2023-04-17T16:27:01.076Z,12.76
2023-04-17T16:29:29.225Z,12.71
2023-04-17T16:31:57.135Z,12.68
2023-04-17T16:34:25.511Z,12.63
2023-04-17T16:36:53.409Z,12.59
2023-04-17T16:39:21.476Z,12.55
2023-04-17T16:41:49.283Z,12.51
2023-04-17T16:44:17.157Z,12.49
2023-04-17T16:47:09.446Z,12.44
2023-04-17T16:49:33.468Z,12.41
2023-04-17T16:52:01.632Z,12.39
2023-04-17T16:54:29.539Z,12.34
2023-04-17T16:56:57.297Z,12.30
2023-04-17T16:59:25.292Z,12.25
2023-04-17T17:01:53.181Z,12.20
2023-04-17T17:04:21.396Z,12.14
2023-04-17T17:06:49.198Z,12.09
2023-04-17T17:09:16.981Z,12.07
2023-04-17T17:11:44.940Z,12.05
2023-04-17T17:14:12.794Z,12.01
2023-04-17T17:16:40.939Z,11.98
2023-04-17T17:19:09.429Z,11.95
2023-04-17T17:21:37.171Z,11.94
2023-04-17T17:24:05.292Z,11.90
2023-04-17T17:26:33.699Z,11.87
2023-04-17T17:29:01.695Z,11.86
2023-04-17T17:31:29.893Z,11.85
2023-04-17T17:34:11.846Z,11.83
2023-04-17T17:36:48.973Z,11.81
2023-04-17T17:39:17.046Z,11.77
2023-04-17T17:41:47.222Z,11.74
2023-04-17T17:44:15.715Z,11.72
2023-04-17T17:46:43.746Z,11.70
2023-04-17T17:49:11.713Z,11.69
2023-04-17T17:51:39.422Z,11.68
2023-04-17T17:54:08.061Z,11.65
2023-04-17T17:56:36.263Z,11.64
2023-04-17T17:59:09.650Z,11.63
2023-04-17T18:01:37.913Z,11.63
2023-04-17T18:04:06.099Z,11.59
2023-04-17T18:06:34.204Z,11.58
2023-04-17T18:09:02.250Z,11.55
2023-04-17T18:11:30.162Z,11.55
2023-04-17T18:13:57.985Z,11.53
2023-04-17T18:16:27.194Z,11.49
2023-04-17T18:18:55.024Z,11.46
2023-04-17T18:21:22.806Z,11.41
2023-04-17T18:23:50.613Z,11.37
2023-04-17T18:26:18.442Z,11.33
2023-04-17T18:28:46.225Z,11.35
2023-04-17T18:31:14.526Z,11.33
2023-04-17T18:33:42.321Z,11.28
2023-04-17T18:36:10.223Z,11.23
2023-04-17T18:38:38.126Z,11.17
2023-04-17T18:41:06.154Z,11.19
2023-04-17T18:43:34.151Z,11.17
2023-04-17T18:46:07.630Z,11.13
2023-04-17T18:48:36.377Z,11.12
2023-04-17T18:51:11.329Z,11.12
2023-04-17T18:53:39.150Z,11.16
2023-04-17T18:56:08.675Z,11.18
2023-04-17T18:58:40.144Z,11.18
2023-04-17T19:01:09.390Z,11.16
2023-04-17T19:03:37.613Z,11.16
2023-04-17T19:06:06.978Z,11.18
2023-04-17T19:08:35.446Z,11.16
2023-04-17T19:11:03.519Z,11.15
2023-04-17T19:13:31.890Z,11.14
2023-04-17T19:15:59.801Z,11.12
2023-04-17T19:18:29.147Z,11.15
2023-04-17T19:20:56.950Z,11.14
2023-04-17T19:23:24.807Z,11.11
2023-04-17T19:25:56.356Z,11.11
2023-04-17T19:28:27.134Z,11.13
2023-04-17T19:30:56.107Z,11.13
2023-04-17T19:33:23.974Z,11.16
2023-04-17T19:35:52.407Z,11.16
2023-04-17T19:38:20.228Z,11.15
2023-04-17T19:41:08.452Z,11.12
2023-04-17T19:43:36.352Z,11.13
2023-04-17T19:46:04.328Z,11.10
2023-04-17T19:48:32.583Z,11.09
2023-04-17T19:51:00.503Z,11.09
2023-04-17T19:53:30.818Z,11.09
2023-04-17T19:55:58.830Z,11.07
2023-04-17T19:58:27.022Z,11.04
2023-04-17T20:00:54.876Z,11.02
2023-04-17T20:03:23.012Z,11.00
2023-04-17T20:05:50.977Z,10.96
2023-04-17T20:08:19.556Z,10.95
2023-04-17T20:10:47.433Z,10.94
2023-04-17T20:13:15.417Z,10.91
2023-04-17T20:15:43.186Z,10.88
2023-04-17T20:18:11.230Z,10.86
2023-04-17T20:20:39.258Z,10.84
2023-04-17T20:23:07.081Z,10.82
2023-04-17T20:25:35.060Z,10.78
2023-04-17T20:28:03.005Z,10.75
2023-04-17T20:30:31.377Z,10.70
2023-04-17T20:33:00.400Z,10.67
2023-04-17T20:35:28.386Z,10.63
2023-04-17T20:37:56.262Z,10.61
2023-04-17T20:40:24.223Z,10.59
2023-04-17T20:42:52.014Z,10.55
2023-04-17T20:45:20.113Z,10.54
2023-04-17T20:50:18.935Z,10.51
2023-04-17T20:52:46.878Z,10.50
2023-04-17T20:55:15.359Z,10.48
2023-04-17T20:57:43.160Z,10.46
2023-04-17T21:00:12.206Z,10.45
2023-04-17T21:02:40.142Z,10.43
2023-04-17T21:05:08.290Z,10.41
2023-04-17T21:07:36.441Z,10.39
2023-04-17T21:10:04.556Z,10.35
2023-04-17T21:12:33.145Z,10.33
2023-04-17T21:15:01.151Z,10.32
2023-04-17T21:17:29.039Z,10.31
2023-04-17T21:19:56.954Z,10.30
2023-04-17T21:22:24.753Z,10.26
2023-04-17T21:24:52.618Z,10.22
2023-04-17T21:27:20.453Z,10.16
2023-04-17T21:29:48.257Z,10.12
2023-04-17T21:32:16.273Z,10.10
2023-04-17T21:34:44.033Z,10.10
2023-04-17T21:37:11.893Z,10.06
2023-04-17T21:39:40.000Z,10.03
2023-04-17T21:42:09.724Z,9.97
2023-04-17T21:44:37.778Z,9.94
2023-04-17T21:47:05.837Z,9.92
2023-04-17T21:49:34.312Z,9.87
2023-04-17T21:52:02.161Z,9.84
2023-04-17T21:54:30.052Z,9.80
2023-04-17T21:56:58.474Z,9.77
2023-04-17T21:59:26.230Z,9.72
2023-04-17T22:01:54.499Z,9.66
2023-04-17T22:04:22.451Z,9.65
2023-04-17T22:06:52.292Z,9.64
2023-04-17T22:09:20.902Z,9.61
2023-04-17T22:11:48.790Z,9.58
2023-04-17T22:14:16.640Z,9.55
2023-04-17T22:16:44.671Z,9.52
2023-04-17T22:19:13.037Z,9.50
2023-04-17T22:21:40.820Z,9.45
2023-04-17T22:24:09.218Z,9.43
2023-04-17T22:26:37.476Z,9.42
2023-04-17T22:29:05.358Z,9.41
2023-04-17T22:31:33.705Z,9.40
2023-04-17T22:34:01.610Z,9.41
2023-04-17T22:36:29.640Z,9.39
2023-04-17T22:38:57.717Z,9.39
2023-04-17T22:41:25.558Z,9.38
2023-04-17T22:43:53.359Z,9.37
2023-04-17T22:46:21.093Z,9.36
2023-04-17T22:48:49.688Z,9.34
2023-04-17T22:51:17.887Z,9.33
2023-04-17T22:53:46.686Z,9.33
2023-04-17T22:56:14.461Z,9.30
2023-04-17T22:58:42.569Z,9.29
2023-04-17T23:01:10.794Z,9.25
2023-04-17T23:03:38.933Z,9.22
2023-04-17T23:06:07.659Z,9.19
2023-04-17T23:08:35.485Z,9.18
2023-04-17T23:11:04.519Z,9.18
2023-04-17T23:13:32.295Z,9.17
2023-04-17T23:16:00.319Z,9.17
2023-04-17T23:18:28.536Z,9.14
2023-04-17T23:20:56.673Z,9.13
2023-04-17T23:23:24.553Z,9.14
2023-04-17T23:25:52.367Z,9.13
2023-04-17T23:28:20.673Z,9.11
2023-04-17T23:30:48.602Z,9.11
2023-04-17T23:33:16.459Z,9.07
2023-04-17T23:35:44.173Z,9.07
2023-04-17T23:38:11.974Z,9.05
2023-04-17T23:40:39.763Z,9.09
2023-04-17T23:43:07.532Z,9.08
2023-04-17T23:45:35.346Z,9.04
2023-04-17T23:48:03.217Z,9.04
2023-04-17T23:50:31.249Z,9.06
2023-04-17T23:52:59.001Z,9.05
2023-04-17T23:55:27.022Z,9.05
2023-04-17T23:57:55.407Z,9.07
